Time;durP1;ratioP1;P1;durP2;ratioP2;P2;SDS_P1;SDS_P2;PMS_P1;PMS_P2;Temp;Humidity;BMP_temperature;BMP_pressure;BME280_temperature;BME280_humidity;BME280_pressure;Samples;Min_cycle;Max_cycle;Signal;HPM_P1;HPM_P2
2021/06/15 00:00:24;;;;;;;6.03;2.93;;;;;;;15.28;nan;96843.69;3529241;40;20850;-72
2021/06/15 00:02:54;;;;;;;6.27;3.60;;;;;;;15.26;nan;96843.81;3532382;40;20453;-72
2021/06/15 00:05:22;;;;;;;6.50;3.43;;;;;;;15.20;nan;96836.41;3530554;40;20768;-72
2021/06/15 00:07:51;;;;;;;6.03;3.07;;;;;;;15.11;nan;96838.03;3528818;40;20445;-71
2021/06/15 00:10:22;;;;;;;7.27;3.20;;;;;;;15.08;nan;96843.56;3518037;40;20470;-71
2021/06/15 00:12:52;;;;;;;6.40;3.20;;;;;;;15.00;nan;96846.00;3529447;40;20717;-71
2021/06/15 00:15:22;;;;;;;15.23;3.57;;;;;;;14.87;nan;96847.97;3531062;40;20470;-71
2021/06/15 00:17:51;;;;;;;8.50;3.70;;;;;;;14.90;nan;96845.91;3529096;40;20503;-71
2021/06/15 00:20:19;;;;;;;6.60;3.77;;;;;;;14.92;nan;96849.25;3529197;40;20829;-71
2021/06/15 00:22:47;;;;;;;4.30;3.30;;;;;;;14.67;nan;96845.16;3532121;40;20469;-72
2021/06/15 00:25:18;;;;;;;7.23;3.50;;;;;;;14.54;nan;96828.63;3522267;40;20483;-71
2021/06/15 00:27:47;;;;;;;4.30;2.50;;;;;;;14.80;nan;96847.63;3532527;40;20944;-71
2021/06/15 00:30:17;;;;;;;4.03;2.90;;;;;;;14.41;nan;96840.16;3530158;40;21137;-71
2021/06/15 00:32:47;;;;;;;4.47;2.60;;;;;;;14.49;nan;96841.34;3530635;40;20556;-71
2021/06/15 00:35:15;;;;;;;4.60;2.77;;;;;;;14.55;nan;96841.69;3521724;40;20958;-71
2021/06/15 00:37:43;;;;;;;6.63;2.87;;;;;;;14.56;nan;96839.88;3530354;40;20771;-71
2021/06/15 00:40:11;;;;;;;21.30;4.10;;;;;;;14.57;nan;96834.53;3530830;40;20965;-70
2021/06/15 00:42:41;;;;;;;6.13;3.17;;;;;;;14.59;nan;96837.03;3529797;40;20449;-71
2021/06/15 00:45:11;;;;;;;10.77;4.37;;;;;;;14.49;nan;96844.00;3528754;40;20679;-71
2021/06/15 00:47:40;;;;;;;6.17;3.33;;;;;;;14.30;nan;96842.00;3531585;40;20849;-70
2021/06/15 00:50:17;;;;;;;8.57;3.90;;;;;;;14.30;nan;96831.44;3532906;40;20838;-71
2021/06/15 00:52:45;;;;;;;8.77;3.20;;;;;;;14.44;nan;96837.31;3532761;40;20489;-70
2021/06/15 00:55:14;;;;;;;7.13;2.70;;;;;;;14.37;nan;96833.47;3528323;40;20517;-71
2021/06/15 00:57:44;;;;;;;8.67;3.27;;;;;;;14.36;nan;96830.97;3527470;40;20729;-71
2021/06/15 01:00:13;;;;;;;5.30;3.40;;;;;;;14.39;nan;96831.56;3529318;40;20479;-72
2021/06/15 01:02:41;;;;;;;11.73;3.70;;;;;;;14.31;nan;96818.16;3530407;40;20912;-72
2021/06/15 01:05:12;;;;;;;7.17;3.63;;;;;;;14.29;nan;96822.72;3532936;40;20483;-71
2021/06/15 01:07:50;;;;;;;5.00;3.50;;;;;;;14.20;nan;96826.09;3531461;40;20472;-72
2021/06/15 01:10:31;;;;;;;8.50;4.23;;;;;;;14.20;nan;96821.66;3529599;40;20575;-71
2021/06/15 01:13:13;;;;;;;6.90;4.40;;;;;;;14.12;nan;96823.22;3529883;40;20536;-71
2021/06/15 01:15:52;;;;;;;8.77;4.27;;;;;;;13.97;nan;96818.19;3530212;40;20466;-70
2021/06/15 01:18:23;;;;;;;9.63;3.33;;;;;;;14.00;nan;96815.34;3531288;40;20955;-71
2021/06/15 01:20:54;;;;;;;8.70;4.20;;;;;;;13.98;nan;96826.97;3528289;40;21228;-71
2021/06/15 01:23:50;;;;;;;5.27;3.10;;;;;;;13.84;nan;96820.16;3512845;40;21059;-70
2021/06/15 01:26:43;;;;;;;7.73;3.53;;;;;;;13.89;nan;96817.13;3518418;40;20547;-70
2021/06/15 01:29:18;;;;;;;6.67;3.50;;;;;;;13.89;nan;96815.34;3525679;40;20484;-71
2021/06/15 01:31:49;;;;;;;4.47;2.70;;;;;;;13.90;nan;96813.53;3529379;40;20822;-71
2021/06/15 01:34:22;;;;;;;8.70;4.20;;;;;;;13.88;nan;96820.72;3528942;40;20451;-70
2021/06/15 01:36:56;;;;;;;15.33;3.87;;;;;;;13.76;nan;96804.94;3527084;40;20851;-71
2021/06/15 01:39:28;;;;;;;5.60;3.00;;;;;;;13.76;nan;96801.47;3531047;40;20449;-70
2021/06/15 01:42:03;;;;;;;4.60;3.23;;;;;;;13.67;nan;96808.28;3522798;40;20850;-70
2021/06/15 01:44:35;;;;;;;6.60;3.13;;;;;;;13.18;nan;96807.59;3529912;40;20479;-71
2021/06/15 01:47:06;;;;;;;4.20;3.37;;;;;;;13.36;nan;96808.03;3531446;40;20527;-71
2021/06/15 01:49:41;;;;;;;5.97;2.77;;;;;;;13.45;nan;96801.22;3532255;40;20714;-72
2021/06/15 01:52:11;;;;;;;6.23;3.70;;;;;;;13.49;nan;96804.47;3528930;40;20527;-72
2021/06/15 01:54:42;;;;;;;7.10;3.77;;;;;;;13.51;nan;96806.03;3533123;40;20499;-71
2021/06/15 01:57:13;;;;;;;6.00;3.20;;;;;;;13.52;nan;96801.59;3522006;40;20481;-71
2021/06/15 01:59:45;;;;;;;9.50;3.57;;;;;;;13.37;nan;96811.50;3529220;40;20550;-72
2021/06/15 02:02:14;;;;;;;6.83;3.53;;;;;;;13.36;nan;96810.66;3530705;40;20450;-70
2021/06/15 02:04:46;;;;;;;7.80;3.87;;;;;;;13.44;nan;96812.69;3527788;40;20469;-71
2021/06/15 02:07:20;;;;;;;7.43;3.70;;;;;;;13.34;nan;96807.31;3531007;40;20449;-72
2021/06/15 02:09:52;;;;;;;7.07;2.87;;;;;;;13.35;nan;96809.00;3520201;40;20475;-71
2021/06/15 02:12:24;;;;;;;9.13;3.50;;;;;;;13.23;nan;96804.63;3527769;40;20542;-71
2021/06/15 02:14:55;;;;;;;5.93;3.87;;;;;;;13.31;nan;96812.81;3527476;40;20780;-72
2021/06/15 02:17:25;;;;;;;7.50;4.50;;;;;;;13.30;nan;96805.03;3533729;40;20445;-71
2021/06/15 02:19:54;;;;;;;8.73;4.43;;;;;;;13.25;nan;96800.09;3530428;40;20483;-71
2021/06/15 02:22:24;;;;;;;14.37;4.70;;;;;;;13.24;nan;96795.78;3518610;40;20474;-71
2021/06/15 02:24:56;;;;;;;5.57;3.30;;;;;;;13.23;nan;96794.97;3531273;40;20498;-71
2021/06/15 02:27:25;;;;;;;7.80;3.40;;;;;;;13.18;nan;96791.84;3533432;40;20463;-69
2021/06/15 02:29:56;;;;;;;7.73;3.63;;;;;;;13.16;nan;96793.75;3531101;40;20472;-71
2021/06/15 02:32:31;;;;;;;6.20;3.40;;;;;;;13.19;nan;96796.16;3522867;40;21095;-71
2021/06/15 02:35:02;;;;;;;7.70;3.87;;;;;;;13.17;nan;96794.56;3526634;40;20927;-72
2021/06/15 02:37:35;;;;;;;5.73;4.07;;;;;;;13.04;nan;96777.09;3528936;40;20796;-72
2021/06/15 02:40:07;;;;;;;5.50;3.20;;;;;;;13.15;nan;96786.81;3530313;40;20755;-71
2021/06/15 02:42:41;;;;;;;5.90;3.33;;;;;;;12.95;nan;96795.38;3525952;40;20597;-71
2021/06/15 02:45:14;;;;;;;4.00;2.77;;;;;;;12.74;nan;96793.41;3529582;40;20826;-71
2021/06/15 02:47:44;;;;;;;6.27;3.50;;;;;;;12.72;nan;96797.94;3518454;40;20948;-72
2021/06/15 02:50:16;;;;;;;4.77;2.80;;;;;;;12.79;nan;96796.50;3529376;40;20487;-70
2021/06/15 02:52:49;;;;;;;4.23;3.10;;;;;;;12.82;nan;96790.22;3530213;40;20750;-71
2021/06/15 02:55:20;;;;;;;4.23;3.00;;;;;;;12.83;nan;96789.25;3531740;40;20557;-71
2021/06/15 02:57:49;;;;;;;5.60;2.67;;;;;;;12.82;nan;96792.84;3531326;40;20478;-71
2021/06/15 03:00:20;;;;;;;5.80;3.93;;;;;;;12.84;nan;96783.88;3529943;40;20540;-70
2021/06/15 03:02:47;;;;;;;11.63;4.10;;;;;;;12.73;nan;96793.50;3531696;40;20447;-71
2021/06/15 03:05:17;;;;;;;7.60;3.13;;;;;;;12.66;nan;96788.72;3529463;40;20877;-72
2021/06/15 03:07:45;;;;;;;5.73;3.30;;;;;;;12.65;nan;96789.66;3532676;40;20458;-72
2021/06/15 03:10:14;;;;;;;7.73;3.57;;;;;;;12.54;nan;96767.75;3528984;40;20508;-70
2021/06/15 03:12:49;;;;;;;4.00;3.23;;;;;;;12.74;nan;96790.78;3528909;40;20446;-71
2021/06/15 03:15:23;;;;;;;4.00;3.00;;;;;;;12.70;nan;96784.06;3526988;40;20971;-70
2021/06/15 03:17:59;;;;;;;8.10;3.47;;;;;;;12.55;nan;96772.06;3528706;40;20709;-71
2021/06/15 03:20:29;;;;;;;4.50;3.00;;;;;;;12.63;nan;96785.47;3530277;40;20559;-70
2021/06/15 03:23:05;;;;;;;6.40;4.07;;;;;;;12.44;nan;96781.56;3528446;40;20537;-71
2021/06/15 03:25:35;;;;;;;6.77;4.20;;;;;;;12.58;nan;96785.78;3526839;40;20944;-72
2021/06/15 03:28:08;;;;;;;6.60;3.77;;;;;;;12.51;nan;96789.84;3529433;40;20465;-70
2021/06/15 03:30:40;;;;;;;5.73;3.90;;;;;;;12.52;nan;96788.03;3530224;40;20853;-71
2021/06/15 03:33:14;;;;;;;4.07;3.03;;;;;;;12.51;nan;96794.28;3522128;40;20823;-71
2021/06/15 03:35:44;;;;;;;6.87;3.23;;;;;;;12.47;nan;96785.78;3529452;40;20472;-71
2021/06/15 03:38:16;;;;;;;5.33;3.77;;;;;;;12.50;nan;96784.69;3531283;40;20464;-71
2021/06/15 03:40:48;;;;;;;14.03;6.30;;;;;;;12.58;nan;96792.84;3529996;40;20831;-71
2021/06/15 03:43:17;;;;;;;10.40;6.60;;;;;;;12.64;nan;96784.50;3512370;40;20470;-71
2021/06/15 03:45:50;;;;;;;9.77;4.87;;;;;;;12.55;nan;96790.47;3527706;40;20480;-71
2021/06/15 03:48:21;;;;;;;5.87;4.27;;;;;;;12.54;nan;96786.16;3527599;40;20527;-71
2021/06/15 03:50:59;;;;;;;7.20;3.90;;;;;;;12.37;nan;96795.28;3534220;40;20482;-71
2021/06/15 03:53:30;;;;;;;20.40;4.40;;;;;;;12.31;nan;96795.69;3533008;40;20480;-72
2021/06/15 03:55:59;;;;;;;7.40;4.23;;;;;;;12.32;nan;96792.97;3515906;40;20488;-71
2021/06/15 03:58:32;;;;;;;11.07;5.03;;;;;;;12.29;nan;96797.59;3521726;40;20555;-74
2021/06/15 04:01:02;;;;;;;5.50;3.97;;;;;;;12.21;nan;96796.38;3527628;40;20478;-72
2021/06/15 04:03:33;;;;;;;5.93;3.83;;;;;;;12.41;nan;96804.59;3530184;40;20501;-73
2021/06/15 04:06:03;;;;;;;9.83;3.87;;;;;;;12.50;nan;96803.91;3532681;40;20562;-73
2021/06/15 04:08:32;;;;;;;7.80;3.50;;;;;;;12.62;nan;96810.06;3509972;40;20466;-72
2021/06/15 04:11:01;;;;;;;11.53;4.47;;;;;;;12.63;nan;96806.50;3532097;40;20762;-72
2021/06/15 04:13:31;;;;;;;8.10;4.70;;;;;;;12.79;nan;96800.94;3527969;40;20471;-71
2021/06/15 04:16:01;;;;;;;6.30;3.83;;;;;;;13.01;nan;96805.41;3530414;40;20470;-73
2021/06/15 04:18:31;;;;;;;8.10;3.90;;;;;;;13.19;nan;96805.81;3528278;40;20464;-73
2021/06/15 04:21:05;;;;;;;6.97;4.23;;;;;;;13.36;nan;96801.94;3532499;40;20456;-72
2021/06/15 04:23:40;;;;;;;10.40;4.57;;;;;;;13.35;nan;96800.25;3530680;40;20473;-75
2021/06/15 04:26:08;;;;;;;6.17;3.93;;;;;;;13.28;nan;96802.47;3521415;40;20472;-72
2021/06/15 04:28:38;;;;;;;8.80;4.10;;;;;;;12.92;nan;96792.97;3528940;40;20834;-72
2021/06/15 04:31:08;;;;;;;5.50;4.47;;;;;;;13.15;nan;96801.75;3531745;40;20771;-72
2021/06/15 04:33:37;;;;;;;6.30;4.07;;;;;;;13.26;nan;96799.97;3532397;40;20527;-72
2021/06/15 04:36:07;;;;;;;6.43;3.87;;;;;;;13.35;nan;96808.13;3531883;40;20535;-72
2021/06/15 04:38:41;;;;;;;7.23;4.40;;;;;;;13.29;nan;96805.94;3531232;40;21137;-72
2021/06/15 04:41:13;;;;;;;5.63;3.73;;;;;;;13.30;nan;96815.56;3529083;40;20487;-72
2021/06/15 04:43:46;;;;;;;6.73;3.60;;;;;;;13.21;nan;96817.03;3529144;40;20448;-72
2021/06/15 04:46:20;;;;;;;8.70;3.77;;;;;;;12.99;nan;96813.41;3533420;40;20446;-73
2021/06/15 04:48:53;;;;;;;6.37;4.07;;;;;;;13.36;nan;96818.53;3529871;40;20473;-73
2021/06/15 04:51:22;;;;;;;10.07;4.80;;;;;;;13.20;nan;96823.28;3527585;40;20924;-72
2021/06/15 04:53:58;;;;;;;8.70;3.63;;;;;;;13.35;nan;96813.41;3528326;40;20458;-72
2021/06/15 04:56:28;;;;;;;6.20;3.70;;;;;;;13.62;nan;96816.56;3528951;40;20792;-72
2021/06/15 04:58:58;;;;;;;5.83;4.13;;;;;;;13.88;nan;96816.31;3527449;40;20772;-73
2021/06/15 05:01:28;;;;;;;6.53;4.33;;;;;;;14.07;nan;96822.75;3534648;40;20464;-72
2021/06/15 05:03:57;;;;;;;5.80;4.07;;;;;;;14.19;nan;96822.63;3529649;40;20799;-72
2021/06/15 05:06:26;;;;;;;10.03;4.20;;;;;;;14.12;nan;96817.97;3532235;40;20446;-73
2021/06/15 05:08:58;;;;;;;8.73;4.37;;;;;;;14.53;nan;96816.44;3530105;40;20471;-73
2021/06/15 05:11:29;;;;;;;5.27;4.00;;;;;;;14.86;nan;96823.41;3533169;40;20507;-71
2021/06/15 05:13:59;;;;;;;8.20;3.87;;;;;;;14.80;nan;96824.75;3516516;40;20719;-70
2021/06/15 05:16:33;;;;;;;13.73;4.27;;;;;;;14.73;nan;96834.09;3520319;40;20550;-71
2021/06/15 05:19:01;;;;;;;10.30;4.50;;;;;;;14.31;nan;96827.84;3531513;40;20467;-71
2021/06/15 05:21:33;;;;;;;6.10;4.30;;;;;;;13.97;nan;96825.25;3529314;40;20785;-71
2021/06/15 05:24:05;;;;;;;10.83;4.57;;;;;;;14.11;nan;96826.81;3531568;40;20459;-70
2021/06/15 05:26:33;;;;;;;13.33;4.93;;;;;;;14.56;nan;96826.69;3528662;40;20880;-71
2021/06/15 05:29:01;;;;;;;9.37;4.10;;;;;;;14.72;nan;96790.28;3530016;40;21099;-73
2021/06/15 05:31:31;;;;;;;8.13;3.83;;;;;;;15.40;nan;96819.72;3528628;40;20960;-71
2021/06/15 05:33:59;;;;;;;9.70;3.97;;;;;;;15.73;nan;96817.84;3533383;40;20459;-70
2021/06/15 05:36:27;;;;;;;6.20;3.40;;;;;;;15.84;nan;96832.78;3524168;40;20555;-71
2021/06/15 05:38:54;;;;;;;9.93;4.03;;;;;;;15.96;nan;96829.06;3530924;40;20849;-71
2021/06/15 05:41:22;;;;;;;9.20;4.00;;;;;;;15.98;nan;96828.94;3529794;40;20523;-71
2021/06/15 05:43:50;;;;;;;16.83;4.90;;;;;;;16.01;nan;96837.44;3530685;40;20469;-71
2021/06/15 05:46:18;;;;;;;10.20;4.27;;;;;;;16.29;nan;96834.16;3532834;40;20445;-71
2021/06/15 05:48:48;;;;;;;7.70;4.30;;;;;;;16.41;nan;96830.47;3529863;40;20889;-71
2021/06/15 05:51:16;;;;;;;5.30;4.17;;;;;;;16.18;nan;96821.91;3520497;40;20578;-71
2021/06/15 05:53:43;;;;;;;26.30;6.20;;;;;;;16.76;nan;96829.94;3530424;40;20907;-70
2021/06/15 05:56:11;;;;;;;10.30;4.53;;;;;;;17.12;nan;96830.22;3519497;40;20493;-71
2021/06/15 05:58:39;;;;;;;4.90;3.67;;;;;;;17.37;nan;96825.34;3529491;40;20477;-71
2021/06/15 06:01:07;;;;;;;8.00;4.20;;;;;;;17.32;nan;96828.41;3532682;40;21037;-71
2021/06/15 06:03:37;;;;;;;15.40;4.57;;;;;;;17.23;nan;96823.97;3531919;40;20460;-71
2021/06/15 06:08:52;;;;;;;12.50;4.20;;;;;;;18.14;nan;96805.69;3528775;40;20465;-71
2021/06/15 06:11:20;;;;;;;12.97;4.60;;;;;;;18.46;nan;96835.38;3531382;40;20481;-71
2021/06/15 06:13:53;;;;;;;10.70;4.40;;;;;;;18.73;nan;96834.50;3520179;40;20699;-71
2021/06/15 06:16:21;;;;;;;14.93;4.87;;;;;;;18.96;nan;96834.94;3528640;40;20675;-71
2021/06/15 06:19:02;;;;;;;12.03;4.67;;;;;;;18.90;nan;96827.59;3529101;40;20487;-71
2021/06/15 06:21:32;;;;;;;7.50;4.17;;;;;;;19.28;nan;96828.22;3527608;40;20925;-71
2021/06/15 06:24:01;;;;;;;24.33;8.40;;;;;;;19.59;nan;96830.44;3531077;40;20722;-70
2021/06/15 06:26:29;;;;;;;17.90;7.20;;;;;;;19.77;nan;96827.75;3520279;40;20848;-71
2021/06/15 06:28:57;;;;;;;8.80;4.40;;;;;;;20.14;nan;96835.41;3527995;40;20778;-71
2021/06/15 06:31:25;;;;;;;8.17;3.50;;;;;;;20.62;nan;96839.25;3531117;40;20799;-71
2021/06/15 06:33:53;;;;;;;8.70;3.63;;;;;;;20.73;nan;96840.78;3518699;40;20484;-70
2021/06/15 06:36:21;;;;;;;11.90;3.40;;;;;;;20.60;nan;96832.41;3531684;40;20530;-71
2021/06/15 06:38:52;;;;;;;11.77;4.07;;;;;;;20.83;nan;96829.97;3528654;40;20563;-71
2021/06/15 06:41:20;;;;;;;12.60;4.10;;;;;;;20.76;nan;96837.81;3531698;40;20444;-71
2021/06/15 06:43:49;;;;;;;15.73;3.30;;;;;;;20.88;nan;96836.47;3530951;40;20524;-71
2021/06/15 06:46:17;;;;;;;22.33;4.47;;;;;;;21.06;nan;96835.50;3532428;40;20834;-71
2021/06/15 06:48:45;;;;;;;8.17;2.87;;;;;;;21.21;nan;96833.00;3535438;40;20450;-70
2021/06/15 06:51:13;;;;;;;11.40;3.53;;;;;;;21.50;nan;96837.84;3530768;40;20441;-71
2021/06/15 06:53:41;;;;;;;7.07;3.90;;;;;;;21.88;nan;96838.13;3528957;40;20509;-71
2021/06/15 06:56:10;;;;;;;8.70;3.50;;;;;;;21.76;nan;96845.66;3530704;40;20464;-71
2021/06/15 06:58:38;;;;;;;8.70;4.03;;;;;;;21.70;nan;96841.81;3520998;40;20838;-70
2021/06/15 07:01:06;;;;;;;27.37;14.27;;;;;;;22.01;nan;96841.09;3528349;40;20761;-71
2021/06/15 07:03:34;;;;;;;22.13;3.83;;;;;;;22.52;nan;96848.72;3520448;40;20546;-71
2021/06/15 07:06:02;;;;;;;8.23;4.03;;;;;;;22.34;nan;96850.81;3530008;40;20520;-71
2021/06/15 07:08:31;;;;;;;5.80;2.63;;;;;;;22.40;nan;96848.28;3516117;40;20786;-71
2021/06/15 07:10:59;;;;;;;5.23;2.73;;;;;;;22.43;nan;96839.94;3532846;40;20722;-71
2021/06/15 07:13:29;;;;;;;4.63;2.50;;;;;;;22.74;nan;96841.78;3535377;40;20515;-72
2021/06/15 07:15:57;;;;;;;4.63;2.60;;;;;;;22.21;nan;96838.84;3531408;40;20853;-71
2021/06/15 07:18:25;;;;;;;7.43;2.53;;;;;;;22.42;nan;96842.78;3517408;40;20854;-71
2021/06/15 07:20:53;;;;;;;6.73;3.30;;;;;;;22.82;nan;96835.56;3530655;40;20458;-72
2021/06/15 07:23:24;;;;;;;5.73;2.83;;;;;;;23.22;nan;96833.63;3532166;40;20539;-71
2021/06/15 07:25:52;;;;;;;7.77;3.10;;;;;;;23.18;nan;96835.00;3530278;40;20483;-72
2021/06/15 07:28:19;;;;;;;4.83;3.10;;;;;;;23.91;nan;96830.00;3532900;40;21201;-71
2021/06/15 07:30:49;;;;;;;11.67;3.17;;;;;;;23.92;nan;96829.84;3529439;40;20449;-71
2021/06/15 07:33:17;;;;;;;20.30;3.13;;;;;;;23.97;nan;96829.28;3530644;40;20523;-72
2021/06/15 07:35:45;;;;;;;6.30;2.40;;;;;;;23.82;nan;96829.28;3530327;40;20487;-71
2021/06/15 07:38:13;;;;;;;10.83;3.10;;;;;;;23.80;nan;96836.66;3533374;40;20665;-71
2021/06/15 07:40:41;;;;;;;12.60;3.53;;;;;;;24.06;nan;96826.31;3532160;40;20578;-72
2021/06/15 07:43:09;;;;;;;9.60;2.97;;;;;;;24.49;nan;96833.66;3521760;40;20873;-72
2021/06/15 07:45:39;;;;;;;10.17;3.13;;;;;;;24.34;nan;96824.81;3536349;40;20965;-71
2021/06/15 07:48:08;;;;;;;11.73;2.77;;;;;;;24.53;nan;96829.63;3525145;40;20477;-71
2021/06/15 07:50:36;;;;;;;6.93;2.67;;;;;;;24.81;nan;96836.94;3532857;40;20475;-72
2021/06/15 07:53:05;;;;;;;6.03;3.00;;;;;;;24.64;nan;96834.50;3531294;40;20817;-71
2021/06/15 07:55:33;;;;;;;6.90;2.70;;;;;;;25.31;nan;96829.03;3530276;40;20468;-71
2021/06/15 07:58:00;;;;;;;6.93;2.23;;;;;;;25.75;nan;96827.91;3530318;40;20781;-72
2021/06/15 08:00:29;;;;;;;7.27;2.70;;;;;;;25.87;nan;96829.00;3531427;40;20536;-72
2021/06/15 08:02:57;;;;;;;3.90;2.20;;;;;;;25.79;nan;96821.94;3535753;40;20861;-71
2021/06/15 08:05:26;;;;;;;5.40;2.27;;;;;;;25.84;nan;96827.56;3532460;40;20516;-72
2021/06/15 08:07:54;;;;;;;7.57;2.03;;;;;;;26.14;nan;96824.66;3530697;40;20562;-71
2021/06/15 08:10:23;;;;;;;7.83;2.00;;;;;;;26.52;nan;96821.53;3533113;40;20728;-71
2021/06/15 08:12:52;;;;;;;12.00;2.23;;;;;;;26.26;nan;96816.06;3509704;40;20469;-72
2021/06/15 08:15:20;;;;;;;8.97;2.50;;;;;;;27.19;nan;96832.47;3522370;40;20476;-72
2021/06/15 08:17:48;;;;;;;9.03;2.20;;;;;;;27.76;nan;96823.00;3530635;40;20442;-72
2021/06/15 08:20:17;;;;;;;4.90;2.17;;;;;;;27.89;nan;96826.72;3531091;40;21007;-72
2021/06/15 08:22:50;;;;;;;7.37;2.37;;;;;;;28.03;nan;96828.38;3531739;40;20904;-72
2021/06/15 08:25:18;;;;;;;9.57;2.23;;;;;;;27.59;nan;96833.34;3530540;40;20849;-72
2021/06/15 08:27:46;;;;;;;6.83;2.57;;;;;;;27.49;nan;96834.81;3531342;40;20683;-73
2021/06/15 08:30:16;;;;;;;11.67;2.27;;;;;;;28.12;nan;96831.66;3531681;40;20918;-72
2021/06/15 08:32:44;;;;;;;8.53;2.60;;;;;;;28.50;nan;96829.03;3530369;40;20460;-72
2021/06/15 08:35:12;;;;;;;8.90;2.33;;;;;;;28.48;nan;96825.75;3530594;40;20481;-71
2021/06/15 08:37:41;;;;;;;4.93;2.40;;;;;;;28.95;nan;96822.81;3529177;40;20555;-72
2021/06/15 08:40:12;;;;;;;3.60;2.37;;;;;;;28.71;nan;96829.78;3530415;40;20842;-72
2021/06/15 08:42:40;;;;;;;7.60;2.63;;;;;;;28.96;nan;96835.25;3522971;40;20912;-71
2021/06/15 08:45:11;;;;;;;4.40;2.50;;;;;;;28.23;nan;96833.69;3531847;40;20487;-72
2021/06/15 08:47:40;;;;;;;6.00;2.30;;;;;;;28.13;nan;96838.69;3529528;40;20819;-72
2021/06/15 08:50:10;;;;;;;4.97;1.83;;;;;;;27.88;nan;96838.53;3531007;40;20837;-72
2021/06/15 08:52:38;;;;;;;12.80;2.50;;;;;;;28.03;nan;96839.13;3516852;40;20556;-72
2021/06/15 08:55:12;;;;;;;3.80;2.00;;;;;;;28.29;nan;96842.78;3520931;40;20473;-71
2021/06/15 08:57:42;;;;;;;7.33;2.60;;;;;;;27.82;nan;96845.53;3530693;40;20497;-71
2021/06/15 09:00:12;;;;;;;6.33;2.60;;;;;;;27.56;nan;96844.53;3529372;40;20543;-72
2021/06/15 09:02:45;;;;;;;7.37;2.13;;;;;;;28.22;nan;96842.78;3530147;40;20512;-72
2021/06/15 09:05:18;;;;;;;10.03;2.27;;;;;;;28.10;nan;96829.16;3532174;40;20473;-72
2021/06/15 09:08:06;;;;;;;8.67;2.03;;;;;;;28.74;nan;96842.84;3529920;40;20869;-72
2021/06/15 09:10:38;;;;;;;7.83;2.43;;;;;;;27.98;nan;96836.22;3518130;40;20505;-71
2021/06/15 09:13:07;;;;;;;5.53;2.30;;;;;;;28.63;nan;96846.22;3529831;40;20959;-72
2021/06/15 09:15:36;;;;;;;4.77;2.00;;;;;;;28.53;nan;96842.09;3526300;40;20576;-71
2021/06/15 09:18:04;;;;;;;6.37;2.00;;;;;;;29.30;nan;96850.19;3519777;40;20543;-72
2021/06/15 09:20:33;;;;;;;6.07;2.10;;;;;;;29.51;nan;96849.00;3527390;40;20476;-72
2021/06/15 09:23:06;;;;;;;4.50;2.53;;;;;;;29.65;nan;96852.41;3528429;40;20489;-72
2021/06/15 09:25:36;;;;;;;4.20;2.07;;;;;;;29.25;nan;96847.34;3526259;40;20915;-72
2021/06/15 09:28:19;;;;;;;9.33;2.40;;;;;;;30.07;nan;96844.59;3530055;40;20766;-72
2021/06/15 09:30:57;;;;;;;8.80;2.50;;;;;;;30.53;nan;96851.38;3533147;40;20766;-72
2021/06/15 09:33:40;;;;;;;8.30;2.17;;;;;;;30.29;nan;96853.09;3528828;40;21224;-71
2021/06/15 09:36:26;;;;;;;5.10;2.83;;;;;;;30.42;nan;96852.13;3524106;40;20696;-72
2021/06/15 09:38:56;;;;;;;20.20;3.30;;;;;;;30.57;nan;96853.63;3529312;40;20860;-72
2021/06/15 09:41:40;;;;;;;6.77;3.13;;;;;;;30.79;nan;96859.38;3533360;40;20865;-72
2021/06/15 09:44:16;;;;;;;6.43;2.23;;;;;;;29.13;nan;96859.88;3528848;40;20441;-72
2021/06/15 09:46:45;;;;;;;6.13;2.53;;;;;;;29.47;nan;96865.84;3532799;40;20473;-72
2021/06/15 09:49:14;;;;;;;9.37;2.73;;;;;;;30.35;nan;96857.63;3522091;40;20503;-71
2021/06/15 09:51:41;;;;;;;15.77;2.63;;;;;;;30.95;nan;96856.06;3519660;40;20486;-72
2021/06/15 09:54:10;;;;;;;9.33;2.37;;;;;;;31.07;nan;96858.81;3530656;40;20755;-72
2021/06/15 09:56:42;;;;;;;6.60;1.80;;;;;;;30.72;nan;96851.38;3512539;40;20583;-71
2021/06/15 09:59:10;;;;;;;5.57;2.17;;;;;;;30.81;nan;96852.69;3528865;40;20462;-72
2021/06/15 10:01:48;;;;;;;2.70;1.93;;;;;;;31.37;nan;96857.97;3523910;40;20761;-72
2021/06/15 10:04:19;;;;;;;3.27;2.20;;;;;;;30.93;nan;96858.16;3517514;40;20861;-72
2021/06/15 10:06:49;;;;;;;8.40;2.13;;;;;;;30.28;nan;96847.91;3535975;40;20811;-72
2021/06/15 10:09:25;;;;;;;7.77;2.60;;;;;;;30.67;nan;96854.72;3530935;40;20908;-72
2021/06/15 10:11:55;;;;;;;4.60;1.83;;;;;;;30.59;nan;96857.75;3528647;40;20459;-72
2021/06/15 10:14:24;;;;;;;5.80;1.97;;;;;;;31.63;nan;96857.56;3529434;40;20562;-72
2021/06/15 10:16:55;;;;;;;8.00;2.43;;;;;;;29.99;nan;96844.91;3531326;40;20549;-71
2021/06/15 10:19:26;;;;;;;4.83;1.90;;;;;;;31.83;nan;96845.59;3526986;40;20718;-72
2021/06/15 10:21:55;;;;;;;3.73;1.80;;;;;;;32.34;nan;96846.75;3530184;40;20928;-72
2021/06/15 10:24:25;;;;;;;11.43;2.53;;;;;;;30.21;nan;96848.00;3529790;40;20465;-72
2021/06/15 10:27:04;;;;;;;8.90;1.80;;;;;;;31.63;nan;96852.16;3530718;40;20453;-72
2021/06/15 10:29:32;;;;;;;12.07;2.33;;;;;;;32.47;nan;96846.50;3531836;40;20842;-72
2021/06/15 10:32:12;;;;;;;4.30;2.10;;;;;;;32.45;nan;96829.66;3531620;40;20480;-72
2021/06/15 10:34:49;;;;;;;3.50;2.10;;;;;;;30.41;nan;96845.09;3531222;40;20472;-72
2021/06/15 10:37:39;;;;;;;3.77;1.80;;;;;;;30.93;nan;96842.81;3530340;40;20469;-72
2021/06/15 10:40:35;;;;;;;8.93;2.40;;;;;;;30.19;nan;96835.75;3531233;40;20761;-72
2021/06/15 10:43:19;;;;;;;22.27;2.40;;;;;;;32.33;nan;96838.88;3529595;40;20775;-72
2021/06/15 10:45:51;;;;;;;9.00;1.97;;;;;;;32.29;nan;96844.78;3531643;40;20829;-72
2021/06/15 10:48:41;;;;;;;4.40;1.60;;;;;;;30.81;nan;96849.97;3529205;40;20834;-72
2021/06/15 10:51:23;;;;;;;11.03;1.67;;;;;;;31.06;nan;96830.13;3529809;40;20832;-72
2021/06/15 10:53:53;;;;;;;8.23;2.10;;;;;;;30.80;nan;96840.25;3529883;40;20469;-72
2021/06/15 10:56:23;;;;;;;8.10;2.00;;;;;;;29.33;nan;96838.97;3528533;40;20734;-72
2021/06/15 10:58:59;;;;;;;6.50;2.70;;;;;;;28.90;nan;96833.44;3526718;40;20566;-71
2021/06/15 11:01:28;;;;;;;33.97;12.93;;;;;;;30.64;nan;96827.34;3516511;40;20481;-72
2021/06/15 11:03:58;;;;;;;12.93;2.07;;;;;;;31.84;nan;96841.84;3526573;40;20688;-72
2021/06/15 11:06:49;;;;;;;15.93;2.57;;;;;;;30.74;nan;96841.16;3528338;40;20470;-72
2021/06/15 11:09:23;;;;;;;14.83;2.70;;;;;;;31.78;nan;96826.53;3529330;40;20483;-72
2021/06/15 11:12:25;;;;;;;3.10;1.93;;;;;;;32.45;nan;96831.56;3528331;40;20917;-72
2021/06/15 11:15:13;;;;;;;2.10;1.90;;;;;;;32.24;nan;96831.09;3528559;40;20717;-73
2021/06/15 11:17:49;;;;;;;8.70;2.17;;;;;;;33.15;nan;96827.81;3534802;40;20465;-72
2021/06/15 11:20:41;;;;;;;24.20;2.77;;;;;;;33.60;nan;96828.81;3530820;40;20554;-72
2021/06/15 11:23:14;;;;;;;9.90;2.50;;;;;;;34.54;nan;96830.75;3508849;40;20866;-72
2021/06/15 11:25:51;;;;;;;4.77;1.90;;;;;;;34.49;nan;96832.59;3531073;40;20491;-72
2021/06/15 11:28:44;;;;;;;7.90;1.90;;;;;;;32.99;nan;96832.09;3529039;40;20500;-72
2021/06/15 11:31:29;;;;;;;15.63;2.07;;;;;;;32.79;nan;96831.72;3529889;40;20489;-73
2021/06/15 11:34:16;;;;;;;4.93;1.90;;;;;;;32.26;nan;96828.16;3525127;40;20973;-72
2021/06/15 11:36:51;;;;;;;4.50;1.83;;;;;;;33.13;nan;96826.38;3531006;40;20908;-72
2021/06/15 11:39:34;;;;;;;6.87;2.43;;;;;;;32.86;nan;96832.41;3529740;40;20489;-72
2021/06/15 11:42:20;;;;;;;94.80;5.17;;;;;;;33.38;nan;96823.31;3532362;40;21264;-72
2021/06/15 11:44:53;;;;;;;14.13;2.70;;;;;;;33.94;nan;96816.06;3533079;40;20539;-72
2021/06/15 11:47:34;;;;;;;2.70;1.60;;;;;;;33.33;nan;96817.81;3532561;40;20932;-72
2021/06/15 11:50:11;;;;;;;2.73;1.80;;;;;;;33.46;nan;96822.88;3529854;40;20547;-72
2021/06/15 11:52:41;;;;;;;2.83;1.87;;;;;;;33.27;nan;96811.47;3531406;40;20518;-72
2021/06/15 11:55:11;;;;;;;21.27;3.17;;;;;;;32.61;nan;96825.41;3532689;40;20506;-72
2021/06/15 11:57:40;;;;;;;5.90;2.00;;;;;;;32.69;nan;96821.50;3532465;40;20472;-72
2021/06/15 12:00:16;;;;;;;4.90;1.90;;;;;;;33.83;nan;96819.69;3533888;40;20509;-72
2021/06/15 12:02:44;;;;;;;8.27;2.00;;;;;;;34.56;nan;96814.16;3531074;40;20470;-72
2021/06/15 12:05:15;;;;;;;3.90;2.00;;;;;;;34.30;nan;96816.56;3522213;40;20836;-72
2021/06/15 12:07:50;;;;;;;7.03;2.30;;;;;;;33.40;nan;96810.31;3532808;40;20463;-72
2021/06/15 12:10:20;;;;;;;5.57;2.50;;;;;;;31.90;nan;96819.22;3520731;40;20464;-72
2021/06/15 12:13:01;;;;;;;4.83;2.03;;;;;;;31.83;nan;96807.69;3521568;40;20924;-72